createdAt,value
2016-10-20T00:00:43.085Z,966.59
2016-10-20T00:01:43.046Z,966.57
2016-10-20T00:02:43.009Z,966.59
2016-10-20T00:03:42.971Z,966.59
2016-10-20T00:04:42.930Z,966.59
2016-10-20T00:05:42.890Z,966.57
2016-10-20T00:06:42.855Z,966.55
2016-10-20T00:07:42.815Z,966.56
2016-10-20T00:08:42.776Z,966.55
2016-10-20T00:09:42.737Z,966.55
2016-10-20T00:10:42.698Z,966.56
2016-10-20T00:11:42.659Z,966.55
2016-10-20T00:12:42.622Z,966.57
2016-10-20T00:13:42.583Z,966.6
2016-10-20T00:14:42.545Z,966.54
2016-10-20T00:15:42.505Z,966.53
2016-10-20T00:16:42.468Z,966.52
2016-10-20T00:17:42.429Z,966.58
2016-10-20T00:18:42.389Z,966.55
2016-10-20T00:19:42.351Z,966.58
2016-10-20T00:20:42.312Z,966.56
2016-10-20T00:21:42.274Z,966.58
2016-10-20T00:22:42.235Z,966.51
2016-10-20T00:23:42.197Z,966.53
2016-10-20T00:24:42.158Z,966.55
2016-10-20T00:25:42.120Z,966.52
2016-10-20T00:26:42.082Z,966.52
2016-10-20T00:27:42.044Z,966.48
2016-10-20T00:28:42.005Z,966.42
2016-10-20T00:29:41.965Z,966.46
2016-10-20T00:30:41.928Z,966.47
2016-10-20T00:31:41.891Z,966.4
2016-10-20T00:32:41.851Z,966.4
2016-10-20T00:33:41.813Z,966.38
2016-10-20T00:34:41.777Z,966.39
2016-10-20T00:35:41.739Z,966.4
2016-10-20T00:36:41.697Z,966.4
2016-10-20T00:37:41.658Z,966.39
2016-10-20T00:38:41.622Z,966.38
2016-10-20T00:39:41.582Z,966.35
2016-10-20T00:40:41.543Z,966.34
2016-10-20T00:41:41.505Z,966.34
2016-10-20T00:42:41.468Z,966.34
2016-10-20T00:43:41.428Z,966.41
2016-10-20T00:44:41.391Z,966.41
2016-10-20T00:45:41.353Z,966.4
2016-10-20T00:46:41.314Z,966.39
2016-10-20T00:47:41.275Z,966.43
2016-10-20T00:48:41.237Z,966.37
2016-10-20T00:49:41.198Z,966.4
2016-10-20T00:50:41.160Z,966.36
2016-10-20T00:51:41.122Z,966.37
2016-10-20T00:52:41.083Z,966.39
2016-10-20T00:53:41.045Z,966.37
2016-10-20T00:54:41.006Z,966.32
2016-10-20T00:55:40.968Z,966.31
2016-10-20T00:56:40.929Z,966.28
2016-10-20T00:57:40.893Z,966.3
2016-10-20T00:58:40.853Z,966.29
2016-10-20T00:59:40.815Z,966.3
2016-10-20T01:00:40.776Z,966.28
2016-10-20T01:01:40.738Z,966.29
2016-10-20T01:02:40.699Z,966.28
2016-10-20T01:03:40.661Z,966.23
2016-10-20T01:04:40.623Z,966.25
2016-10-20T01:05:40.583Z,966.27
2016-10-20T01:06:40.545Z,966.28
2016-10-20T01:07:40.508Z,966.26
2016-10-20T01:08:40.469Z,966.27
2016-10-20T01:09:40.431Z,966.3
2016-10-20T01:10:40.392Z,966.28
2016-10-20T01:11:40.355Z,966.24
2016-10-20T01:12:40.316Z,966.24
2016-10-20T01:13:40.278Z,966.26
2016-10-20T01:14:40.240Z,966.23
2016-10-20T01:15:40.202Z,966.23
2016-10-20T01:16:40.164Z,966.22
2016-10-20T01:17:40.125Z,966.21
2016-10-20T01:18:40.088Z,966.17
2016-10-20T01:19:40.049Z,966.17
2016-10-20T01:20:40.009Z,966.18
2016-10-20T01:21:39.972Z,966.18
2016-10-20T01:22:39.934Z,966.13
2016-10-20T01:23:39.895Z,966.13
2016-10-20T01:24:39.857Z,966.11
2016-10-20T01:25:39.820Z,966.13
2016-10-20T01:26:39.781Z,966.09
2016-10-20T01:27:39.743Z,966.17
2016-10-20T01:28:39.705Z,966.11
2016-10-20T01:29:39.665Z,966.13
2016-10-20T01:30:39.629Z,966.11
2016-10-20T01:31:39.588Z,966.13
2016-10-20T01:32:39.551Z,966.11
2016-10-20T01:33:39.512Z,966.11
2016-10-20T01:34:39.475Z,966.1
2016-10-20T01:35:39.435Z,966.07
2016-10-20T01:36:39.397Z,966.1
2016-10-20T01:37:39.360Z,966.11
2016-10-20T01:38:39.323Z,966.11
2016-10-20T01:39:39.283Z,966.1
2016-10-20T01:40:39.245Z,966.12
2016-10-20T01:41:39.207Z,966.07
2016-10-20T01:42:39.168Z,966.06
2016-10-20T01:43:39.131Z,966.09
2016-10-20T01:44:39.092Z,966.09
2016-10-20T01:45:39.053Z,966.03
2016-10-20T01:46:39.015Z,966.06
2016-10-20T01:47:38.979Z,966.03
2016-10-20T01:48:38.940Z,966.01
2016-10-20T01:49:38.900Z,966.06
2016-10-20T01:50:38.862Z,966.03
2016-10-20T01:51:38.824Z,966.06
2016-10-20T01:52:38.787Z,966.04
2016-10-20T01:53:38.747Z,966.05
2016-10-20T01:54:38.709Z,966.05
2016-10-20T01:55:38.672Z,966.04
2016-10-20T01:56:38.632Z,966.07
2016-10-20T01:57:38.597Z,966.03
2016-10-20T01:58:38.557Z,965.96
2016-10-20T01:59:38.519Z,965.98
2016-10-20T02:00:38.480Z,965.98
2016-10-20T02:01:38.441Z,965.99
2016-10-20T02:02:38.403Z,965.99
2016-10-20T02:03:38.366Z,966.02
2016-10-20T02:04:38.332Z,965.99
2016-10-20T02:05:38.289Z,965.99
2016-10-20T02:06:38.251Z,965.97
2016-10-20T02:07:38.212Z,965.93
2016-10-20T02:08:38.176Z,965.94
2016-10-20T02:09:38.139Z,965.91
2016-10-20T02:10:38.100Z,965.89
2016-10-20T02:11:38.061Z,965.91
2016-10-20T02:12:38.023Z,965.89
2016-10-20T02:13:37.987Z,965.91
2016-10-20T02:14:37.947Z,965.86
2016-10-20T02:15:37.909Z,965.91
2016-10-20T02:16:37.872Z,965.88
2016-10-20T02:17:37.834Z,965.9
2016-10-20T02:18:37.795Z,965.91
2016-10-20T02:19:37.757Z,965.84
2016-10-20T02:20:37.719Z,965.88
2016-10-20T02:21:37.682Z,965.84
2016-10-20T02:22:37.644Z,965.76
2016-10-20T02:23:37.604Z,965.8
2016-10-20T02:24:37.568Z,965.79
2016-10-20T02:25:37.531Z,965.76
2016-10-20T02:26:37.492Z,965.77
2016-10-20T02:27:37.452Z,965.74
2016-10-20T02:28:37.416Z,965.76
2016-10-20T02:29:37.375Z,965.72
2016-10-20T02:30:37.338Z,965.73
2016-10-20T02:31:37.298Z,965.69
2016-10-20T02:32:37.262Z,965.66
2016-10-20T02:33:37.223Z,965.68
2016-10-20T02:34:37.185Z,965.65
2016-10-20T02:35:37.147Z,965.59
2016-10-20T02:36:37.109Z,965.59
2016-10-20T02:37:37.070Z,965.61
2016-10-20T02:38:37.031Z,965.61
2016-10-20T02:39:36.995Z,965.58
2016-10-20T02:40:36.954Z,965.57
2016-10-20T02:41:36.917Z,965.57
2016-10-20T02:42:36.878Z,965.53
2016-10-20T02:43:36.839Z,965.56
2016-10-20T02:44:36.805Z,965.59
2016-10-20T02:45:36.762Z,965.55
2016-10-20T02:46:36.724Z,965.58
2016-10-20T02:47:36.685Z,965.54
2016-10-20T02:48:36.649Z,965.58
2016-10-20T02:49:36.609Z,965.54
2016-10-20T02:50:36.572Z,965.53
2016-10-20T02:51:36.532Z,965.55
2016-10-20T02:52:36.494Z,965.53
2016-10-20T02:53:36.459Z,965.54
2016-10-20T02:54:36.417Z,965.49
2016-10-20T02:55:36.376Z,965.51
2016-10-20T02:56:36.339Z,965.49
2016-10-20T02:57:36.300Z,965.45
2016-10-20T02:58:36.260Z,965.43
2016-10-20T02:59:36.223Z,965.35
2016-10-20T03:00:36.183Z,965.39
2016-10-20T03:01:36.145Z,965.31
2016-10-20T03:02:36.105Z,965.33
2016-10-20T03:03:36.065Z,965.3
2016-10-20T03:04:36.028Z,965.27
2016-10-20T03:05:35.990Z,965.3
2016-10-20T03:06:35.949Z,965.27
2016-10-20T03:07:35.912Z,965.28
2016-10-20T03:08:35.871Z,965.29
2016-10-20T03:09:35.833Z,965.28
2016-10-20T03:10:35.794Z,965.32
2016-10-20T03:11:35.755Z,965.27
2016-10-20T03:12:35.717Z,965.28
2016-10-20T03:13:35.679Z,965.27
2016-10-20T03:14:35.639Z,965.28
2016-10-20T03:15:35.599Z,965.28
2016-10-20T03:16:35.561Z,965.26
2016-10-20T03:17:35.527Z,965.26
2016-10-20T03:18:35.483Z,965.25
2016-10-20T03:19:35.446Z,965.27
2016-10-20T03:20:35.403Z,965.22
2016-10-20T03:21:35.366Z,965.19
2016-10-20T03:22:35.328Z,965.23
2016-10-20T03:23:35.289Z,965.21
2016-10-20T03:24:35.248Z,965.2
2016-10-20T03:25:35.207Z,965.18
2016-10-20T03:26:35.170Z,965.19
2016-10-20T03:27:35.133Z,965.17
2016-10-20T03:28:35.093Z,965.19
2016-10-20T03:29:35.054Z,965.17
2016-10-20T03:30:35.014Z,965.23
2016-10-20T03:31:34.976Z,965.2
2016-10-20T03:32:34.936Z,965.2
2016-10-20T03:33:34.897Z,965.2
2016-10-20T03:34:34.857Z,965.21
2016-10-20T03:35:34.817Z,965.19
2016-10-20T03:36:34.778Z,965.21
2016-10-20T03:37:34.741Z,965.17
2016-10-20T03:38:34.702Z,965.2
2016-10-20T03:39:34.661Z,965.2
2016-10-20T03:40:34.623Z,965.2
2016-10-20T03:41:34.584Z,965.21
2016-10-20T03:42:34.544Z,965.2
2016-10-20T03:43:34.504Z,965.19
2016-10-20T03:44:34.467Z,965.17
2016-10-20T03:45:34.427Z,965.24
2016-10-20T03:46:34.387Z,965.21
2016-10-20T03:47:34.348Z,965.24
2016-10-20T03:48:34.310Z,965.18
2016-10-20T03:49:34.269Z,965.17
2016-10-20T03:50:34.229Z,965.21
2016-10-20T03:51:34.192Z,965.18
2016-10-20T03:52:34.152Z,965.19
2016-10-20T03:53:34.111Z,965.17
2016-10-20T03:54:34.073Z,965.13
2016-10-20T03:55:34.034Z,965.11
2016-10-20T03:56:33.995Z,965.09
2016-10-20T03:57:33.954Z,965.09
2016-10-20T03:58:33.916Z,965.14
2016-10-20T03:59:33.881Z,965.11
2016-10-20T04:00:33.840Z,965.12
2016-10-20T04:01:33.799Z,965.12
2016-10-20T04:02:33.759Z,965.09
2016-10-20T04:03:33.719Z,965.14
2016-10-20T04:04:33.680Z,965.12
2016-10-20T04:05:33.642Z,965.1
2016-10-20T04:06:33.603Z,965.11
2016-10-20T04:07:33.565Z,965.06
2016-10-20T04:08:33.525Z,965.12
2016-10-20T04:09:33.485Z,965.08
2016-10-20T04:10:33.444Z,965.09
2016-10-20T04:11:33.408Z,965.08
2016-10-20T04:12:33.367Z,965.07
2016-10-20T04:13:33.329Z,965.09
2016-10-20T04:14:33.288Z,965.1
2016-10-20T04:15:33.249Z,965.13
2016-10-20T04:16:33.210Z,965.12
2016-10-20T04:17:33.172Z,965.17
2016-10-20T04:18:33.134Z,965.12
2016-10-20T04:19:33.092Z,965.19
2016-10-20T04:20:33.052Z,965.14
2016-10-20T04:21:33.017Z,965.11
2016-10-20T04:22:32.973Z,965.18
2016-10-20T04:23:32.935Z,965.13
2016-10-20T04:24:32.896Z,965.07
2016-10-20T04:25:32.859Z,965.14
2016-10-20T04:26:32.828Z,965.07
2016-10-20T04:27:32.778Z,965.12
2016-10-20T04:28:32.741Z,965.1
2016-10-20T04:29:32.702Z,965.12
2016-10-20T04:30:32.659Z,965.13
2016-10-20T04:31:32.634Z,965.16
2016-10-20T04:32:32.582Z,965.16
2016-10-20T04:33:32.542Z,965.17
2016-10-20T04:34:32.506Z,965.14
2016-10-20T04:35:32.464Z,965.16
2016-10-20T04:36:32.424Z,965.17
2016-10-20T04:37:32.384Z,965.08
2016-10-20T04:38:32.346Z,965.07
2016-10-20T04:39:32.305Z,965.08
2016-10-20T04:40:32.268Z,965.03
2016-10-20T04:41:32.229Z,965.06
2016-10-20T04:42:32.189Z,965.04
2016-10-20T04:43:32.152Z,965.05
2016-10-20T04:44:32.109Z,965.03
2016-10-20T04:45:32.072Z,965.06
2016-10-20T04:46:32.032Z,965.02
2016-10-20T04:47:31.994Z,965
2016-10-20T04:48:31.953Z,964.97
2016-10-20T04:49:31.914Z,964.94
2016-10-20T04:50:31.875Z,964.98
2016-10-20T04:51:31.837Z,965
2016-10-20T04:52:31.797Z,964.99
2016-10-20T04:53:31.758Z,965.01
2016-10-20T04:54:31.719Z,965
2016-10-20T04:55:31.680Z,965.01
2016-10-20T04:56:31.641Z,964.98
2016-10-20T04:57:31.612Z,965.01
2016-10-20T04:58:31.563Z,965.03
2016-10-20T04:59:31.523Z,965
2016-10-20T05:00:31.484Z,964.99
2016-10-20T05:01:31.446Z,965.05
2016-10-20T05:02:31.408Z,965.04
2016-10-20T05:03:31.367Z,965.05
2016-10-20T05:04:31.330Z,965.11
2016-10-20T05:05:31.290Z,965.08
2016-10-20T05:06:31.253Z,965.12
2016-10-20T05:07:31.215Z,965.06
2016-10-20T05:08:31.174Z,965.05
2016-10-20T05:09:31.134Z,965.06
2016-10-20T05:10:31.095Z,965.04
2016-10-20T05:11:31.056Z,965.01
2016-10-20T05:12:31.017Z,965.03
2016-10-20T05:13:30.979Z,964.96
2016-10-20T05:14:30.938Z,964.99
2016-10-20T05:15:30.900Z,965.02
2016-10-20T05:16:30.860Z,964.96
2016-10-20T05:17:30.822Z,965
2016-10-20T05:18:30.783Z,964.98
2016-10-20T05:19:30.744Z,964.96
2016-10-20T05:20:30.704Z,965.01
2016-10-20T05:21:30.665Z,965.03
2016-10-20T05:22:30.625Z,965.03
2016-10-20T05:23:30.590Z,965.02
2016-10-20T05:24:30.548Z,965.01
2016-10-20T05:25:30.508Z,965.03
2016-10-20T05:26:30.471Z,965.01
2016-10-20T05:27:30.431Z,965.05
2016-10-20T05:28:30.391Z,964.99
2016-10-20T05:29:30.354Z,964.95
2016-10-20T05:30:30.314Z,964.91
2016-10-20T05:31:30.275Z,964.93
2016-10-20T05:32:30.235Z,964.9
2016-10-20T05:33:30.195Z,964.9
2016-10-20T05:34:30.156Z,964.96
2016-10-20T05:35:30.118Z,964.99
2016-10-20T05:36:30.078Z,964.96
2016-10-20T05:37:30.039Z,964.96
2016-10-20T05:38:29.999Z,964.95
2016-10-20T05:39:29.960Z,964.96
2016-10-20T05:40:29.921Z,964.95
2016-10-20T05:41:29.882Z,964.94
2016-10-20T05:42:29.842Z,964.95
2016-10-20T05:43:29.802Z,964.97
2016-10-20T05:44:29.764Z,964.94
2016-10-20T05:45:29.726Z,964.99
2016-10-20T05:46:29.685Z,965
2016-10-20T05:47:29.647Z,965
2016-10-20T05:48:29.607Z,964.99
2016-10-20T05:49:29.569Z,964.99
2016-10-20T05:50:29.529Z,965.04
2016-10-20T05:51:29.490Z,965
2016-10-20T05:52:29.454Z,965.01
2016-10-20T05:53:29.411Z,965.02
2016-10-20T05:54:29.371Z,965.02
2016-10-20T05:55:29.332Z,965.01
2016-10-20T05:56:29.294Z,965.05
2016-10-20T05:57:29.253Z,965.03
2016-10-20T05:58:29.217Z,965.03
2016-10-20T05:59:29.176Z,965.08
2016-10-20T06:00:29.137Z,965.1
2016-10-20T06:01:29.098Z,965.11
2016-10-20T06:02:29.059Z,965.1
2016-10-20T06:03:29.019Z,965.1
2016-10-20T06:04:28.980Z,965.17
2016-10-20T06:05:28.940Z,965.17
2016-10-20T06:06:28.901Z,965.17
2016-10-20T06:07:28.861Z,965.19
2016-10-20T06:08:28.823Z,965.22
2016-10-20T06:09:28.783Z,965.25
2016-10-20T06:10:28.743Z,965.26
2016-10-20T06:11:28.704Z,965.25
2016-10-20T06:12:28.664Z,965.27
2016-10-20T06:13:28.627Z,965.28
2016-10-20T06:14:28.588Z,965.28
2016-10-20T06:15:28.547Z,965.24
2016-10-20T06:16:28.507Z,965.28
2016-10-20T06:17:28.469Z,965.3
2016-10-20T06:18:28.431Z,965.35
2016-10-20T06:19:28.389Z,965.33
2016-10-20T06:20:28.351Z,965.33
2016-10-20T06:21:28.311Z,965.35
2016-10-20T06:22:28.272Z,965.33
2016-10-20T06:23:28.234Z,965.31
2016-10-20T06:24:28.194Z,965.33
2016-10-20T06:25:28.156Z,965.29
2016-10-20T06:26:28.118Z,965.27
2016-10-20T06:27:28.078Z,965.34
2016-10-20T06:28:28.040Z,965.31
2016-10-20T06:29:28.000Z,965.34
2016-10-20T06:30:27.960Z,965.38
2016-10-20T06:31:27.922Z,965.34
2016-10-20T06:32:27.885Z,965.35
2016-10-20T06:33:27.845Z,965.35
2016-10-20T06:34:27.803Z,965.34
2016-10-20T06:35:27.767Z,965.35
2016-10-20T06:36:27.728Z,965.36
2016-10-20T06:37:27.689Z,965.38
2016-10-20T06:38:27.651Z,965.35
2016-10-20T06:39:27.611Z,965.34
2016-10-20T06:40:27.574Z,965.3
2016-10-20T06:41:27.533Z,965.33
2016-10-20T06:42:27.496Z,965.31
2016-10-20T06:43:27.458Z,965.34
2016-10-20T06:44:27.419Z,965.32
2016-10-20T06:45:27.379Z,965.3
2016-10-20T06:46:27.340Z,965.32
2016-10-20T06:47:27.303Z,965.31
2016-10-20T06:48:27.265Z,965.35
2016-10-20T06:49:27.223Z,965.3
2016-10-20T06:50:27.193Z,965.32
2016-10-20T06:51:27.147Z,965.34
2016-10-20T06:52:27.109Z,965.38
2016-10-20T06:53:27.070Z,965.34
2016-10-20T06:54:27.032Z,965.37
2016-10-20T06:55:26.993Z,965.37
2016-10-20T06:56:26.953Z,965.37
2016-10-20T06:57:26.915Z,965.41
2016-10-20T06:58:26.876Z,965.44
2016-10-20T06:59:26.840Z,965.39
2016-10-20T07:00:26.799Z,965.43
2016-10-20T07:01:26.761Z,965.46
2016-10-20T07:02:26.725Z,965.46
2016-10-20T07:03:26.684Z,965.46
2016-10-20T07:04:26.645Z,965.46
2016-10-20T07:05:26.607Z,965.46
2016-10-20T07:06:26.569Z,965.46
2016-10-20T07:07:26.531Z,965.46
2016-10-20T07:08:26.493Z,965.45
2016-10-20T07:09:26.454Z,965.49
2016-10-20T07:10:26.418Z,965.52
2016-10-20T07:11:26.378Z,965.5
2016-10-20T07:12:26.340Z,965.48
2016-10-20T07:13:26.306Z,965.51
2016-10-20T07:14:26.264Z,965.58
2016-10-20T07:15:26.227Z,965.5
2016-10-20T07:16:26.191Z,965.54
2016-10-20T07:17:26.154Z,965.57
2016-10-20T07:18:26.116Z,965.57
2016-10-20T07:19:26.077Z,965.59
2016-10-20T07:20:26.042Z,965.52
2016-10-20T07:21:26.004Z,965.54
2016-10-20T07:22:25.968Z,965.53
2016-10-20T07:23:25.931Z,965.55
2016-10-20T07:24:25.894Z,965.55
2016-10-20T07:25:25.857Z,965.5
2016-10-20T07:26:25.817Z,965.5
2016-10-20T07:27:25.782Z,965.5
2016-10-20T07:28:25.761Z,965.47
2016-10-20T07:29:25.708Z,965.51
2016-10-20T07:30:25.671Z,965.53
2016-10-20T07:31:25.636Z,965.52
2016-10-20T07:32:25.599Z,965.5
2016-10-20T07:33:25.563Z,965.55
2016-10-20T07:34:25.529Z,965.59
2016-10-20T07:35:25.492Z,965.53
2016-10-20T07:36:25.455Z,965.57
2016-10-20T07:37:25.417Z,965.57
2016-10-20T07:38:25.381Z,965.53
2016-10-20T07:39:25.344Z,965.58
2016-10-20T07:40:25.307Z,965.56
2016-10-20T07:41:25.271Z,965.54
2016-10-20T07:42:25.239Z,965.58
2016-10-20T07:43:25.200Z,965.55
2016-10-20T07:44:25.163Z,965.62
2016-10-20T07:45:25.130Z,965.61
2016-10-20T07:46:25.092Z,965.67
2016-10-20T07:47:25.057Z,965.67
2016-10-20T07:48:25.021Z,965.64
2016-10-20T07:49:24.986Z,965.67
2016-10-20T07:50:24.951Z,965.76
2016-10-20T07:51:24.914Z,965.77
2016-10-20T07:52:24.883Z,965.81
2016-10-20T07:53:24.846Z,965.77
2016-10-20T07:54:24.811Z,965.83
2016-10-20T07:55:24.778Z,965.86
2016-10-20T07:56:24.745Z,965.85
2016-10-20T07:57:24.710Z,965.78
2016-10-20T07:58:24.679Z,965.76
2016-10-20T07:59:24.647Z,965.8
2016-10-20T08:00:24.616Z,965.9
2016-10-20T08:01:24.585Z,965.81
2016-10-20T08:02:24.555Z,965.9
2016-10-20T08:03:24.527Z,965.86
2016-10-20T08:04:24.498Z,965.81
2016-10-20T08:05:24.467Z,965.76
2016-10-20T08:06:24.439Z,965.74
2016-10-20T08:07:24.413Z,965.73
2016-10-20T08:08:24.385Z,965.75
2016-10-20T08:09:24.359Z,965.78
2016-10-20T08:10:24.328Z,965.83
2016-10-20T08:11:24.299Z,965.72
2016-10-20T08:12:24.270Z,965.69
2016-10-20T08:13:24.242Z,965.69
2016-10-20T08:14:24.214Z,965.63
2016-10-20T08:15:24.185Z,965.7
2016-10-20T08:16:24.157Z,965.7
2016-10-20T08:17:24.128Z,965.68
2016-10-20T08:18:24.097Z,965.71
2016-10-20T08:19:24.069Z,965.75
2016-10-20T08:20:24.038Z,965.67
2016-10-20T08:21:24.008Z,965.7
2016-10-20T08:22:23.979Z,965.66
2016-10-20T08:23:23.954Z,965.7
2016-10-20T08:24:23.918Z,965.68
2016-10-20T08:25:23.887Z,965.71
2016-10-20T08:26:23.858Z,965.69
2016-10-20T08:27:23.824Z,965.7
2016-10-20T08:28:23.795Z,965.74
2016-10-20T08:29:23.763Z,965.69
2016-10-20T08:30:23.734Z,965.65
2016-10-20T08:31:23.701Z,965.61
2016-10-20T08:32:23.671Z,965.63
2016-10-20T08:33:23.638Z,965.66
2016-10-20T08:34:23.608Z,965.68
2016-10-20T08:35:23.575Z,965.7
2016-10-20T08:36:23.544Z,965.68
2016-10-20T08:37:23.513Z,965.62
2016-10-20T08:38:23.480Z,965.71
2016-10-20T08:39:23.450Z,965.7
2016-10-20T08:40:23.425Z,965.68
2016-10-20T08:41:23.385Z,965.69
2016-10-20T08:42:23.351Z,965.66
2016-10-20T08:43:23.319Z,965.68
2016-10-20T08:44:23.288Z,965.67
2016-10-20T08:45:23.258Z,965.65
2016-10-20T08:46:23.222Z,965.65
2016-10-20T08:47:23.190Z,965.65
2016-10-20T08:48:23.157Z,965.64
2016-10-20T08:49:23.123Z,965.67
2016-10-20T08:50:23.090Z,965.66
2016-10-20T08:51:23.058Z,965.61
2016-10-20T08:52:23.025Z,965.61
2016-10-20T08:53:22.991Z,965.67
2016-10-20T08:54:22.961Z,965.65
2016-10-20T08:55:22.926Z,965.65
2016-10-20T08:56:22.893Z,965.65
2016-10-20T08:57:22.858Z,965.7
2016-10-20T08:58:22.825Z,965.71
2016-10-20T08:59:22.793Z,965.7
2016-10-20T09:00:22.760Z,965.72
2016-10-20T09:01:22.727Z,965.71
2016-10-20T09:02:22.693Z,965.69
2016-10-20T09:03:22.659Z,965.7
2016-10-20T09:04:22.625Z,965.73
2016-10-20T09:05:22.592Z,965.67
2016-10-20T09:06:22.560Z,965.7
2016-10-20T09:07:22.524Z,965.72
2016-10-20T09:08:22.493Z,965.64
2016-10-20T09:09:22.458Z,965.72
2016-10-20T09:10:22.426Z,965.71
2016-10-20T09:11:22.390Z,965.64
2016-10-20T09:12:22.356Z,965.65
2016-10-20T09:13:22.324Z,965.71
2016-10-20T09:14:22.290Z,965.69
2016-10-20T09:15:22.255Z,965.71
2016-10-20T09:16:22.223Z,965.73
2016-10-20T09:17:22.190Z,965.72
2016-10-20T09:18:22.155Z,965.71
2016-10-20T09:19:22.121Z,965.72
2016-10-20T09:20:22.089Z,965.69
2016-10-20T09:21:22.056Z,965.66
2016-10-20T09:22:22.020Z,965.73
2016-10-20T09:23:21.989Z,965.76
2016-10-20T09:24:21.956Z,965.84
2016-10-20T09:25:21.925Z,965.77
2016-10-20T09:26:21.890Z,965.99
2016-10-20T09:27:21.857Z,965.68
2016-10-20T09:28:21.825Z,965.71
2016-10-20T09:29:21.792Z,965.76
2016-10-20T09:30:21.760Z,966.06
2016-10-20T09:31:21.728Z,965.76
2016-10-20T09:32:21.697Z,965.73
2016-10-20T09:33:21.663Z,965.67
2016-10-20T09:34:21.631Z,965.68
2016-10-20T09:35:21.599Z,965.68
2016-10-20T09:36:21.568Z,965.65
2016-10-20T09:37:21.536Z,965.66
2016-10-20T09:38:21.504Z,965.66
2016-10-20T09:39:21.472Z,965.7
2016-10-20T09:40:21.439Z,965.64
2016-10-20T09:41:21.410Z,965.72
2016-10-20T09:42:21.377Z,965.67
2016-10-20T09:43:21.344Z,965.67
2016-10-20T09:44:21.312Z,965.71
2016-10-20T09:45:21.279Z,965.64
2016-10-20T09:46:21.250Z,965.66
2016-10-20T09:47:21.216Z,965.62
2016-10-20T09:48:21.184Z,965.73
2016-10-20T09:49:21.152Z,965.7
2016-10-20T09:50:21.119Z,965.66
2016-10-20T09:51:21.086Z,965.7
2016-10-20T09:52:21.057Z,965.73
2016-10-20T09:53:21.023Z,965.75
2016-10-20T09:54:20.991Z,965.8
2016-10-20T09:55:20.959Z,965.76
2016-10-20T09:56:20.928Z,966.14
2016-10-20T09:57:20.895Z,966.12
2016-10-20T09:58:20.863Z,966.23
2016-10-20T09:59:20.831Z,966.19
2016-10-20T10:00:20.800Z,966.27
2016-10-20T10:01:20.769Z,966.31
2016-10-20T10:02:20.739Z,965.87
2016-10-20T10:03:20.710Z,966.22
2016-10-20T10:04:20.680Z,966.3
2016-10-20T10:05:20.651Z,966.28
2016-10-20T10:06:20.622Z,966.01
2016-10-20T10:07:20.595Z,966.17
2016-10-20T10:08:20.568Z,966.36
2016-10-20T10:09:20.541Z,965.77
2016-10-20T10:10:20.516Z,965.76
2016-10-20T10:11:20.487Z,966.38
2016-10-20T10:12:20.461Z,966.36
2016-10-20T10:13:20.435Z,965.88
2016-10-20T10:14:20.410Z,966.36
2016-10-20T10:15:20.386Z,965.99
2016-10-20T10:16:20.359Z,966.27
2016-10-20T10:17:20.334Z,966.19
2016-10-20T10:18:20.309Z,966.15
2016-10-20T10:19:20.284Z,965.63
2016-10-20T10:20:20.262Z,965.69
2016-10-20T10:21:20.235Z,966.08
2016-10-20T10:22:20.208Z,966.12
2016-10-20T10:23:20.186Z,965.67
2016-10-20T10:24:20.159Z,966.13
2016-10-20T10:25:20.136Z,966.12
2016-10-20T10:26:20.109Z,965.66
2016-10-20T10:27:20.085Z,965.62
2016-10-20T10:28:20.062Z,965.66
2016-10-20T10:29:20.035Z,965.63
2016-10-20T10:30:20.012Z,965.6
2016-10-20T10:31:19.985Z,965.97
2016-10-20T10:32:19.961Z,965.72
2016-10-20T10:33:19.936Z,965.58
2016-10-20T10:34:19.909Z,965.89
2016-10-20T10:35:19.881Z,965.97
2016-10-20T10:36:19.856Z,965.65
2016-10-20T10:37:19.831Z,965.88
2016-10-20T10:38:19.806Z,965.6
2016-10-20T10:39:19.780Z,965.49
2016-10-20T10:40:19.756Z,965.49
2016-10-20T10:41:19.729Z,965.47
2016-10-20T10:42:19.704Z,965.48
2016-10-20T10:43:19.679Z,965.84
2016-10-20T10:44:19.652Z,965.45
2016-10-20T10:45:19.628Z,965.42
2016-10-20T10:46:19.601Z,965.43
2016-10-20T10:47:19.574Z,965.38
2016-10-20T10:48:19.546Z,965.32
2016-10-20T10:49:19.521Z,965.39
2016-10-20T10:50:19.495Z,965.44
2016-10-20T10:51:19.465Z,965.39
2016-10-20T10:52:19.438Z,965.36
2016-10-20T10:53:19.411Z,965.34
2016-10-20T10:54:19.381Z,965.27
2016-10-20T10:55:19.355Z,965.23
2016-10-20T10:56:19.326Z,965.28
2016-10-20T10:57:19.295Z,965.19
2016-10-20T10:58:19.267Z,965.24
2016-10-20T10:59:19.236Z,965.25
2016-10-20T11:00:19.209Z,965.19
2016-10-20T11:01:19.177Z,965.2
2016-10-20T11:02:19.148Z,965.19
2016-10-20T11:03:19.119Z,965.17
2016-10-20T11:04:19.088Z,965.14
2016-10-20T11:05:19.056Z,965.29
2016-10-20T11:06:19.027Z,965.16
2016-10-20T11:07:18.997Z,965.15
2016-10-20T11:08:18.965Z,965.06
2016-10-20T11:09:18.933Z,965.23
2016-10-20T11:10:18.904Z,965.26
2016-10-20T11:11:18.872Z,965.26
2016-10-20T11:12:18.841Z,965.23
2016-10-20T11:13:18.809Z,965.01
2016-10-20T11:14:18.778Z,965.04
2016-10-20T11:15:18.745Z,965.09
2016-10-20T11:16:18.716Z,965.08
2016-10-20T11:17:18.683Z,965.15
2016-10-20T11:18:18.654Z,965.12
2016-10-20T11:19:18.621Z,965.14
2016-10-20T11:20:18.589Z,965.1
2016-10-20T11:21:18.558Z,965.08
2016-10-20T11:22:18.528Z,965.11
2016-10-20T11:23:18.496Z,965.03
2016-10-20T11:24:18.464Z,965.07
2016-10-20T11:25:18.434Z,965.01
2016-10-20T11:26:18.401Z,965.03
2016-10-20T11:27:18.374Z,965.02
2016-10-20T11:28:18.339Z,965.06
2016-10-20T11:29:18.309Z,965.05
2016-10-20T11:30:18.278Z,965.02
2016-10-20T11:31:18.245Z,965.07
2016-10-20T11:32:18.214Z,965
2016-10-20T11:33:18.182Z,965.03
2016-10-20T11:34:18.150Z,964.99
2016-10-20T11:35:18.118Z,965.03
2016-10-20T11:36:18.088Z,965
2016-10-20T11:37:18.058Z,964.99
2016-10-20T11:38:18.024Z,964.96
2016-10-20T11:39:17.994Z,964.96
2016-10-20T11:40:17.960Z,964.91
2016-10-20T11:41:17.930Z,964.84
2016-10-20T11:42:17.898Z,964.84
2016-10-20T11:43:17.866Z,964.78
2016-10-20T11:44:17.835Z,964.77
2016-10-20T11:45:17.802Z,964.82
2016-10-20T11:46:17.770Z,964.78
2016-10-20T11:47:17.739Z,964.81
2016-10-20T11:48:17.709Z,964.77
2016-10-20T11:49:17.675Z,964.75
2016-10-20T11:50:17.642Z,964.74
2016-10-20T11:51:17.611Z,964.78
2016-10-20T11:52:17.578Z,964.72
2016-10-20T11:53:17.544Z,964.74
2016-10-20T11:54:17.513Z,964.75
2016-10-20T11:55:17.482Z,964.75
2016-10-20T11:56:17.448Z,964.71
2016-10-20T11:57:17.416Z,964.66
2016-10-20T11:58:17.383Z,964.64
2016-10-20T11:59:17.349Z,964.63
2016-10-20T12:00:17.320Z,964.62
2016-10-20T12:01:17.285Z,964.61
2016-10-20T12:02:17.258Z,964.59
2016-10-20T12:03:17.219Z,964.56
2016-10-20T12:04:17.187Z,964.52
2016-10-20T12:05:17.158Z,964.48
2016-10-20T12:06:17.124Z,964.59
2016-10-20T12:07:17.091Z,964.52
2016-10-20T12:08:17.058Z,964.51
2016-10-20T12:09:17.027Z,964.48
2016-10-20T12:10:16.993Z,964.47
2016-10-20T12:11:16.962Z,964.49
2016-10-20T12:12:16.937Z,964.51
2016-10-20T12:13:16.897Z,964.46
2016-10-20T12:14:16.864Z,964.47
2016-10-20T12:15:16.832Z,964.46
2016-10-20T12:16:16.797Z,964.55
2016-10-20T12:17:16.767Z,964.51
2016-10-20T12:18:16.733Z,964.48
2016-10-20T12:19:16.702Z,964.49
2016-10-20T12:20:16.667Z,964.51
2016-10-20T12:21:16.635Z,964.51
2016-10-20T12:22:16.603Z,964.52
2016-10-20T12:23:16.575Z,964.5
2016-10-20T12:24:16.538Z,964.53
2016-10-20T12:25:16.510Z,964.52
2016-10-20T12:26:16.470Z,964.52
2016-10-20T12:27:16.437Z,964.47
2016-10-20T12:28:16.404Z,964.49
2016-10-20T12:29:16.371Z,964.52
2016-10-20T12:30:16.339Z,964.48
2016-10-20T12:31:16.307Z,964.46